createdAt,value
2023-02-14T00:00:27.963Z,2.33
2023-02-14T00:02:54.595Z,2.26
2023-02-14T00:05:21.014Z,2.14
2023-02-14T00:07:47.434Z,2.07
2023-02-14T00:10:13.809Z,2.08
2023-02-14T00:12:40.162Z,2.19
2023-02-14T00:15:25.395Z,2.08
2023-02-14T00:17:56.857Z,2.10
2023-02-14T00:20:23.767Z,2.20
2023-02-14T00:22:50.713Z,2.14
2023-02-14T00:25:17.154Z,2.04
2023-02-14T00:27:43.556Z,2.02
2023-02-14T00:30:11.812Z,1.90
2023-02-14T00:32:39.696Z,2.06
2023-02-14T00:35:07.573Z,1.96
2023-02-14T00:37:34.569Z,1.96
2023-02-14T00:40:01.010Z,1.87
2023-02-14T00:42:27.496Z,1.75
2023-02-14T00:44:53.878Z,1.75
2023-02-14T00:47:20.239Z,1.77
2023-02-14T00:49:46.598Z,1.68
2023-02-14T00:52:13.001Z,1.67
2023-02-14T00:54:39.497Z,1.60
2023-02-14T00:57:05.830Z,1.72
2023-02-14T00:59:32.219Z,1.52
2023-02-14T01:01:58.596Z,1.58
2023-02-14T01:04:24.958Z,1.55
2023-02-14T01:06:51.308Z,1.47
2023-02-14T01:09:17.711Z,1.44
2023-02-14T01:11:44.141Z,1.51
2023-02-14T01:14:10.545Z,1.59
2023-02-14T01:16:38.342Z,1.45
2023-02-14T01:19:04.736Z,1.37
2023-02-14T01:21:33.296Z,1.41
2023-02-14T01:24:04.194Z,1.25
2023-02-14T01:26:31.407Z,1.10
2023-02-14T01:28:58.196Z,1.18
2023-02-14T01:31:30.065Z,1.01
2023-02-14T01:33:57.532Z,1.13
2023-02-14T01:36:26.852Z,1.12
2023-02-14T01:38:57.180Z,1.01
2023-02-14T01:41:25.511Z,0.84
2023-02-14T01:43:56.403Z,0.82
2023-02-14T01:46:23.313Z,0.96
2023-02-14T01:48:50.992Z,0.93
2023-02-14T01:51:19.863Z,0.89
2023-02-14T01:53:47.271Z,0.70
2023-02-14T01:56:18.910Z,0.65
2023-02-14T01:58:48.117Z,0.67
2023-02-14T02:01:17.693Z,0.57
2023-02-14T02:03:48.980Z,0.56
2023-02-14T02:06:19.863Z,0.45
2023-02-14T02:08:57.425Z,0.34
2023-02-14T02:11:23.834Z,0.36
2023-02-14T02:13:50.175Z,0.39
2023-02-14T02:16:31.331Z,0.18
2023-02-14T02:19:19.492Z,0.34
2023-02-14T02:22:09.230Z,0.29
2023-02-14T02:24:52.311Z,0.28
2023-02-14T02:27:45.594Z,0.27
2023-02-14T02:30:34.228Z,0.07
2023-02-14T02:33:12.697Z,0.07
2023-02-14T02:35:45.183Z,0.02
2023-02-14T02:38:33.364Z,-0.12
2023-02-14T02:41:09.599Z,-0.09
2023-02-14T02:44:13.135Z,-0.16
2023-02-14T02:46:49.610Z,-0.29
2023-02-14T02:50:01.959Z,-0.25
2023-02-14T02:53:03.414Z,-0.27
2023-02-14T02:56:09.184Z,-0.13
2023-02-14T02:58:40.904Z,-0.09
2023-02-14T03:01:11.926Z,-0.31
2023-02-14T03:03:59.979Z,-0.21
2023-02-14T03:06:26.414Z,-0.31
2023-02-14T03:08:52.769Z,-0.27
2023-02-14T03:11:19.411Z,-0.35
2023-02-14T03:14:07.470Z,-0.32
2023-02-14T03:17:32.945Z,-0.42
2023-02-14T03:20:20.883Z,-0.42
2023-02-14T03:23:04.026Z,-0.31
2023-02-14T03:25:38.946Z,-0.10
2023-02-14T03:28:17.073Z,-0.11
2023-02-14T03:30:47.176Z,-0.01
2023-02-14T03:33:32.888Z,0.14
2023-02-14T03:36:09.520Z,0.24
2023-02-14T03:38:51.584Z,0.24
2023-02-14T03:41:23.020Z,0.36
2023-02-14T03:43:57.293Z,0.27
2023-02-14T03:46:42.008Z,0.30
2023-02-14T03:49:17.480Z,0.29
2023-02-14T03:51:47.673Z,0.27
2023-02-14T03:54:17.222Z,0.19
2023-02-14T03:56:51.877Z,0.18
2023-02-14T03:59:21.935Z,0.10
2023-02-14T04:01:56.669Z,0.26
2023-02-14T04:04:27.336Z,0.27
2023-02-14T04:06:53.862Z,0.24
2023-02-14T04:09:20.238Z,0.33
2023-02-14T04:11:50.251Z,0.36
2023-02-14T04:14:17.677Z,0.41
2023-02-14T04:17:02.618Z,0.41
2023-02-14T04:19:29.020Z,0.36
2023-02-14T04:21:55.384Z,0.38
2023-02-14T04:24:21.761Z,0.50
2023-02-14T04:27:06.418Z,0.55
2023-02-14T04:29:32.749Z,0.53
2023-02-14T04:31:59.177Z,0.52
2023-02-14T04:34:25.747Z,0.49
2023-02-14T04:36:52.096Z,0.52
2023-02-14T04:39:18.466Z,0.47
2023-02-14T04:41:44.806Z,0.56
2023-02-14T04:44:11.164Z,0.51
2023-02-14T04:46:37.690Z,0.58
2023-02-14T04:49:04.068Z,0.53
2023-02-14T04:51:30.425Z,0.57
2023-02-14T04:53:56.788Z,0.40
2023-02-14T04:56:23.145Z,0.43
2023-02-14T04:58:49.507Z,0.47
2023-02-14T05:01:15.904Z,0.44
2023-02-14T05:03:42.296Z,0.40
2023-02-14T05:06:08.728Z,0.47
2023-02-14T05:08:35.083Z,0.41
2023-02-14T05:11:01.767Z,0.43
2023-02-14T05:13:28.565Z,0.48
2023-02-14T05:15:55.351Z,0.53
2023-02-14T05:18:21.736Z,0.58
2023-02-14T05:20:54.739Z,0.66
2023-02-14T05:23:22.254Z,0.76
2023-02-14T05:25:49.779Z,0.75
2023-02-14T05:28:16.770Z,0.77
2023-02-14T05:30:43.234Z,0.84
2023-02-14T05:33:09.654Z,0.95
2023-02-14T05:35:36.276Z,1.00
2023-02-14T05:38:02.823Z,0.97
2023-02-14T05:40:29.298Z,0.98
2023-02-14T05:42:55.936Z,0.96
2023-02-14T05:45:23.166Z,0.93
2023-02-14T05:47:50.032Z,1.03
2023-02-14T05:50:17.642Z,0.98
2023-02-14T05:52:44.195Z,1.02
2023-02-14T05:55:10.774Z,0.96
2023-02-14T05:57:37.334Z,1.09
2023-02-14T06:00:06.486Z,1.06
2023-02-14T06:02:33.199Z,1.10
2023-02-14T06:04:59.627Z,1.03
2023-02-14T06:07:26.009Z,1.13
2023-02-14T06:09:52.395Z,1.19
2023-02-14T06:12:18.757Z,1.13
2023-02-14T06:14:45.215Z,1.27
2023-02-14T06:17:11.911Z,1.14
2023-02-14T06:19:38.298Z,1.14
2023-02-14T06:22:04.772Z,1.26
2023-02-14T06:24:31.136Z,1.31
2023-02-14T06:26:59.148Z,1.22
2023-02-14T06:29:25.682Z,1.19
2023-02-14T06:31:52.202Z,1.13
2023-02-14T06:34:18.727Z,1.13
2023-02-14T06:36:45.080Z,1.10
2023-02-14T06:39:11.534Z,1.26
2023-02-14T06:41:37.985Z,1.28
2023-02-14T06:44:04.548Z,1.17
2023-02-14T06:46:31.010Z,1.20
2023-02-14T06:48:57.386Z,1.23
2023-02-14T06:51:23.733Z,0.97
2023-02-14T06:53:50.077Z,1.09
2023-02-14T06:56:16.473Z,1.05
2023-02-14T06:58:42.855Z,1.03
2023-02-14T07:01:09.323Z,0.90
2023-02-14T07:03:35.699Z,0.76
2023-02-14T07:06:02.135Z,0.76
2023-02-14T07:08:28.575Z,0.72
2023-02-14T07:10:58.730Z,0.80
2023-02-14T07:13:25.691Z,0.77
2023-02-14T07:15:52.122Z,0.77
2023-02-14T07:18:18.543Z,0.65
2023-02-14T07:20:45.502Z,0.68
2023-02-14T07:23:11.905Z,0.68
2023-02-14T07:25:38.453Z,0.49
2023-02-14T07:28:04.935Z,0.36
2023-02-14T07:30:31.424Z,0.30
2023-02-14T07:32:58.268Z,0.31
2023-02-14T07:35:24.872Z,0.20
2023-02-14T07:37:51.594Z,0.21
2023-02-14T07:40:18.465Z,0.21
2023-02-14T07:42:44.819Z,0.18
2023-02-14T07:45:21.121Z,0.05
2023-02-14T07:47:52.688Z,-0.12
2023-02-14T07:50:20.348Z,-0.09
2023-02-14T07:52:47.237Z,-0.18
2023-02-14T07:55:14.172Z,-0.28
2023-02-14T07:57:40.538Z,-0.33
2023-02-14T08:00:08.062Z,-0.27
2023-02-14T08:02:35.664Z,-0.26
2023-02-14T08:05:02.069Z,-0.28
2023-02-14T08:07:28.472Z,-0.33
2023-02-14T08:09:54.828Z,-0.32
2023-02-14T08:12:39.672Z,-0.43
2023-02-14T08:15:24.954Z,-0.33
2023-02-14T08:17:51.318Z,-0.34
2023-02-14T08:20:17.796Z,-0.26
2023-02-14T08:22:44.189Z,-0.24
2023-02-14T08:25:10.529Z,-0.29
2023-02-14T08:27:36.887Z,-0.36
2023-02-14T08:30:03.517Z,-0.20
2023-02-14T08:32:30.020Z,-0.23
2023-02-14T08:34:56.461Z,-0.21
2023-02-14T08:37:22.834Z,-0.22
2023-02-14T08:39:49.335Z,-0.15
2023-02-14T08:42:15.715Z,-0.16
2023-02-14T08:44:42.095Z,0.03
2023-02-14T08:47:08.550Z,-0.02
2023-02-14T08:49:34.971Z,-0.08
2023-02-14T08:52:01.398Z,0.04
2023-02-14T08:54:27.776Z,0.02
2023-02-14T08:56:54.156Z,0.02
2023-02-14T08:59:20.544Z,0.13
2023-02-14T09:01:46.918Z,0.16
2023-02-14T09:04:13.442Z,0.09
2023-02-14T09:06:40.002Z,0.10
2023-02-14T09:09:07.201Z,0.20
2023-02-14T09:11:34.679Z,0.26
2023-02-14T09:14:01.198Z,0.20
2023-02-14T09:16:27.695Z,0.11
2023-02-14T09:18:54.723Z,0.20
2023-02-14T09:21:23.977Z,0.29
2023-02-14T09:23:50.639Z,0.32
2023-02-14T09:26:17.624Z,0.25
2023-02-14T09:28:44.743Z,0.29
2023-02-14T09:31:20.471Z,0.34
2023-02-14T09:33:48.117Z,0.35
2023-02-14T09:36:33.481Z,0.30
2023-02-14T09:38:59.898Z,0.36
2023-02-14T09:41:29.390Z,0.45
2023-02-14T09:43:59.336Z,0.45
2023-02-14T09:46:27.565Z,0.50
2023-02-14T09:48:55.088Z,0.53
2023-02-14T09:51:25.770Z,0.57
2023-02-14T09:54:05.745Z,0.65
2023-02-14T09:56:51.655Z,0.79
2023-02-14T09:59:43.219Z,0.72
2023-02-14T10:02:34.885Z,0.78
2023-02-14T10:05:15.095Z,0.81
2023-02-14T10:08:15.836Z,0.90
2023-02-14T10:10:46.200Z,0.73
2023-02-14T10:13:36.505Z,0.76
2023-02-14T10:16:22.256Z,0.73
2023-02-14T10:19:03.883Z,0.66
2023-02-14T10:21:42.591Z,0.61
2023-02-14T10:24:20.440Z,0.71
2023-02-14T10:26:49.328Z,0.60
2023-02-14T10:29:18.434Z,0.48
2023-02-14T10:31:55.750Z,0.43
2023-02-14T10:34:50.953Z,0.56
2023-02-14T10:37:38.363Z,0.67
2023-02-14T10:40:23.640Z,0.71
2023-02-14T10:42:58.330Z,0.79
2023-02-14T10:46:03.539Z,0.71
2023-02-14T10:48:38.131Z,0.72
2023-02-14T10:51:32.727Z,0.81
2023-02-14T10:54:19.041Z,0.73
2023-02-14T10:57:03.606Z,0.81
2023-02-14T10:59:50.508Z,0.98
2023-02-14T11:02:20.364Z,0.91
2023-02-14T11:04:48.176Z,0.87
2023-02-14T11:07:21.220Z,1.00
2023-02-14T11:09:47.801Z,1.02
2023-02-14T11:12:32.485Z,0.94
2023-02-14T11:15:20.404Z,0.86
2023-02-14T11:17:47.115Z,0.92
2023-02-14T11:20:19.906Z,1.06
2023-02-14T11:22:46.679Z,0.94
2023-02-14T11:25:23.438Z,1.12
2023-02-14T11:27:55.727Z,1.08
2023-02-14T11:30:25.806Z,1.02
2023-02-14T11:32:55.125Z,1.08
2023-02-14T11:35:26.925Z,1.24
2023-02-14T11:37:56.316Z,1.23
2023-02-14T11:40:39.238Z,1.35
2023-02-14T11:43:14.320Z,1.22
2023-02-14T11:45:43.440Z,1.19
2023-02-14T11:48:37.371Z,1.04
2023-02-14T11:51:15.566Z,1.05
2023-02-14T11:53:46.304Z,1.20
2023-02-14T11:56:14.992Z,1.11
2023-02-14T11:58:47.706Z,1.14
2023-02-14T12:01:24.309Z,1.20
2023-02-14T12:03:52.569Z,1.14
2023-02-14T12:06:31.570Z,1.05
2023-02-14T12:09:11.194Z,1.10
2023-02-14T12:11:37.951Z,1.18
2023-02-14T12:14:05.769Z,1.23
2023-02-14T12:17:18.736Z,1.09
2023-02-14T12:20:11.850Z,1.21
2023-02-14T12:22:55.399Z,1.33
2023-02-14T12:25:27.210Z,1.33
2023-02-14T12:28:05.329Z,1.38
2023-02-14T12:30:34.984Z,1.22
2023-02-14T12:33:01.950Z,1.20
2023-02-14T12:35:53.522Z,1.32
2023-02-14T12:38:39.369Z,1.28
2023-02-14T12:41:22.538Z,1.18
2023-02-14T12:43:53.305Z,1.15
2023-02-14T12:47:08.229Z,1.19
2023-02-14T12:50:03.679Z,1.15
2023-02-14T12:53:03.322Z,1.08
2023-02-14T12:55:43.938Z,1.14
2023-02-14T12:58:33.434Z,1.03
2023-02-14T13:01:50.622Z,1.06
2023-02-14T13:04:53.375Z,1.07
2023-02-14T13:07:42.274Z,1.13
2023-02-14T13:10:22.461Z,1.29
2023-02-14T13:13:00.913Z,1.34
2023-02-14T13:16:02.703Z,1.37
2023-02-14T13:18:29.022Z,1.31
2023-02-14T13:21:04.780Z,1.28
2023-02-14T13:23:42.029Z,1.38
2023-02-14T13:26:25.369Z,1.30
2023-02-14T13:29:12.811Z,1.34
2023-02-14T13:31:40.541Z,1.18
2023-02-14T13:34:16.804Z,1.21
2023-02-14T13:36:44.202Z,1.15
2023-02-14T13:39:25.049Z,1.23
2023-02-14T13:41:51.593Z,1.19
2023-02-14T13:44:45.952Z,1.26
2023-02-14T13:47:26.299Z,1.33
2023-02-14T13:49:59.969Z,1.49
2023-02-14T13:52:40.037Z,1.44
2023-02-14T13:55:09.939Z,1.39
2023-02-14T13:57:38.629Z,1.28
2023-02-14T14:00:35.085Z,1.26
2023-02-14T14:03:01.893Z,1.34
2023-02-14T14:05:35.458Z,1.28
2023-02-14T14:08:20.130Z,1.24
2023-02-14T14:10:48.103Z,1.39
2023-02-14T14:13:42.306Z,1.35
2023-02-14T14:16:24.389Z,1.30
2023-02-14T14:18:56.847Z,1.30
2023-02-14T14:21:27.683Z,1.37
2023-02-14T14:24:12.220Z,1.42
2023-02-14T14:26:47.750Z,1.36
2023-02-14T14:29:43.470Z,1.33
2023-02-14T14:32:18.083Z,1.18
2023-02-14T14:34:56.551Z,1.12
2023-02-14T14:37:26.162Z,1.10
2023-02-14T14:39:55.190Z,1.20
2023-02-14T14:42:25.228Z,1.20
2023-02-14T14:44:57.322Z,1.18
2023-02-14T14:47:27.213Z,1.13
2023-02-14T14:49:58.872Z,1.13
2023-02-14T14:52:41.193Z,1.11
2023-02-14T14:55:14.848Z,1.00
2023-02-14T14:57:49.409Z,1.05
2023-02-14T15:00:27.208Z,0.95
2023-02-14T15:03:14.920Z,0.93
2023-02-14T15:05:44.626Z,0.88
2023-02-14T15:08:22.126Z,0.95
2023-02-14T15:10:54.254Z,0.92
2023-02-14T15:13:49.216Z,0.88
2023-02-14T15:16:38.323Z,0.87
2023-02-14T15:19:12.444Z,0.92
2023-02-14T15:21:44.226Z,0.97
2023-02-14T15:24:14.560Z,0.80
2023-02-14T15:26:43.768Z,0.95
2023-02-14T15:29:28.836Z,0.70
2023-02-14T15:31:58.133Z,0.68
2023-02-14T15:34:32.389Z,0.80
2023-02-14T15:37:03.858Z,0.79
2023-02-14T15:39:36.826Z,0.70
2023-02-14T15:42:05.865Z,0.74
2023-02-14T15:44:32.750Z,0.70
2023-02-14T15:47:03.509Z,0.59
2023-02-14T15:49:40.824Z,0.61
2023-02-14T15:52:07.821Z,0.62
2023-02-14T15:54:41.615Z,0.68
2023-02-14T15:57:21.349Z,0.55
2023-02-14T15:59:48.786Z,0.60
2023-02-14T16:02:37.806Z,0.60
2023-02-14T16:05:22.073Z,0.65
2023-02-14T16:08:26.439Z,0.67
2023-02-14T16:11:14.451Z,0.65
2023-02-14T16:13:43.858Z,0.54
2023-02-14T16:16:12.292Z,0.59
2023-02-14T16:18:44.014Z,0.57
2023-02-14T16:21:24.081Z,0.57
2023-02-14T16:24:05.485Z,0.54
2023-02-14T16:26:33.090Z,0.45
2023-02-14T16:29:02.650Z,0.59
2023-02-14T16:31:29.531Z,0.63
2023-02-14T16:33:56.015Z,0.45
2023-02-14T16:36:28.910Z,0.48
2023-02-14T16:38:56.247Z,0.42
2023-02-14T16:41:27.885Z,0.49
2023-02-14T16:43:55.180Z,0.47
2023-02-14T16:46:32.515Z,0.49
2023-02-14T16:48:59.157Z,0.48
2023-02-14T16:51:32.269Z,0.43
2023-02-14T16:54:02.606Z,0.39
2023-02-14T16:56:31.587Z,0.43
2023-02-14T16:58:58.316Z,0.31
2023-02-14T17:01:25.621Z,0.41
2023-02-14T17:03:51.986Z,0.45
2023-02-14T17:06:22.904Z,0.40
2023-02-14T17:08:52.118Z,0.41
2023-02-14T17:11:19.357Z,0.33
2023-02-14T17:13:47.522Z,0.36
2023-02-14T17:16:16.399Z,0.36
2023-02-14T17:18:48.677Z,0.54
2023-02-14T17:21:19.306Z,0.43
2023-02-14T17:23:45.675Z,0.53
2023-02-14T17:26:12.032Z,0.39
2023-02-14T17:28:38.395Z,0.49
2023-02-14T17:31:05.105Z,0.57
2023-02-14T17:33:32.914Z,0.55
2023-02-14T17:36:07.122Z,0.46
2023-02-14T17:38:34.822Z,0.49
2023-02-14T17:41:29.255Z,0.58
2023-02-14T17:44:00.146Z,0.61
2023-02-14T17:46:28.899Z,0.51
2023-02-14T17:48:55.791Z,0.48
2023-02-14T17:51:22.202Z,0.55
2023-02-14T17:53:49.783Z,0.46
2023-02-14T17:56:20.471Z,0.54
2023-02-14T17:58:48.441Z,0.48
2023-02-14T18:01:17.788Z,0.54
2023-02-14T18:03:44.659Z,0.54
2023-02-14T18:06:11.926Z,0.52
2023-02-14T18:08:49.224Z,0.45
2023-02-14T18:11:18.122Z,0.50
2023-02-14T18:13:44.528Z,0.46
2023-02-14T18:16:14.542Z,0.47
2023-02-14T18:18:41.344Z,0.49
2023-02-14T18:21:10.515Z,0.47
2023-02-14T18:23:37.421Z,0.47
2023-02-14T18:26:06.927Z,0.52
2023-02-14T18:28:34.576Z,0.53
2023-02-14T18:31:10.079Z,0.49
2023-02-14T18:33:36.759Z,0.52
2023-02-14T18:36:07.068Z,0.53
2023-02-14T18:38:34.584Z,0.60
2023-02-14T18:41:10.046Z,0.57
2023-02-14T18:43:37.074Z,0.44
2023-02-14T18:46:08.184Z,0.57
2023-02-14T18:48:35.295Z,0.52
2023-02-14T18:51:10.005Z,0.47
2023-02-14T18:53:39.981Z,0.54
2023-02-14T18:56:08.860Z,0.41
2023-02-14T18:58:35.801Z,0.45
2023-02-14T19:01:23.963Z,0.48
2023-02-14T19:03:52.739Z,0.50
2023-02-14T19:06:19.432Z,0.58
2023-02-14T19:08:46.295Z,0.46
2023-02-14T19:11:14.998Z,0.64
2023-02-14T19:13:45.931Z,0.65
2023-02-14T19:16:15.495Z,0.66
2023-02-14T19:18:41.955Z,0.75
2023-02-14T19:21:16.558Z,0.70
2023-02-14T19:23:43.542Z,0.58
2023-02-14T19:26:22.064Z,0.58
2023-02-14T19:28:50.450Z,0.54
2023-02-14T19:31:17.082Z,0.59
2023-02-14T19:33:45.523Z,0.61
2023-02-14T19:36:13.970Z,0.60
2023-02-14T19:38:42.565Z,0.64
2023-02-14T19:41:31.034Z,0.65
2023-02-14T19:43:59.024Z,0.70
2023-02-14T19:46:27.638Z,0.60
2023-02-14T19:48:56.061Z,0.68
2023-02-14T19:51:25.729Z,0.79
2023-02-14T19:53:52.703Z,0.69
2023-02-14T19:56:22.185Z,0.67
2023-02-14T19:58:50.150Z,0.65
2023-02-14T20:01:27.164Z,0.59
2023-02-14T20:03:53.629Z,0.73
2023-02-14T20:06:21.577Z,0.61
2023-02-14T20:08:48.255Z,0.65
2023-02-14T20:11:26.417Z,0.60
2023-02-14T20:13:55.004Z,0.61
2023-02-14T20:16:23.018Z,0.58
2023-02-14T20:18:49.443Z,0.55
2023-02-14T20:21:24.398Z,0.58
2023-02-14T20:24:18.480Z,0.59
2023-02-14T20:26:45.620Z,0.58
2023-02-14T20:29:12.051Z,0.54
2023-02-14T20:31:42.461Z,0.57
2023-02-14T20:34:09.359Z,0.56
2023-02-14T20:36:35.857Z,0.50
2023-02-14T20:39:05.464Z,0.52
2023-02-14T20:41:34.445Z,0.65
2023-02-14T20:44:09.996Z,0.55
2023-02-14T20:46:36.524Z,0.58
2023-02-14T20:49:03.810Z,0.58
2023-02-14T20:51:30.171Z,0.63
2023-02-14T20:53:56.788Z,0.63
2023-02-14T20:56:26.150Z,0.74
2023-02-14T20:58:52.545Z,0.72
2023-02-14T21:01:21.094Z,0.58
2023-02-14T21:03:50.797Z,0.53
2023-02-14T21:06:19.283Z,0.47
2023-02-14T21:08:46.635Z,0.43
2023-02-14T21:11:15.871Z,0.42
2023-02-14T21:13:42.284Z,0.44
2023-02-14T21:16:15.376Z,0.50
2023-02-14T21:18:44.323Z,0.44
2023-02-14T21:21:18.656Z,0.50
2023-02-14T21:23:45.061Z,0.31
2023-02-14T21:26:11.427Z,0.40
2023-02-14T21:28:37.773Z,0.36
2023-02-14T21:31:05.309Z,0.35
2023-02-14T21:33:32.821Z,0.39
2023-02-14T21:36:07.615Z,0.30
2023-02-14T21:38:34.635Z,0.16
2023-02-14T21:41:04.823Z,0.13
2023-02-14T21:43:34.591Z,0.19
2023-02-14T21:46:10.342Z,0.16
2023-02-14T21:48:55.328Z,0.13
2023-02-14T21:51:22.152Z,0.14
2023-02-14T21:53:49.231Z,0.06
2023-02-14T21:56:19.612Z,0.13
2023-02-14T21:58:52.348Z,0.03
2023-02-14T22:01:20.282Z,-0.01
2023-02-14T22:03:47.233Z,-0.02
2023-02-14T22:06:13.887Z,-0.04
2023-02-14T22:08:40.814Z,0.02
2023-02-14T22:11:11.150Z,0.07
2023-02-14T22:13:37.625Z,-0.11
2023-02-14T22:16:07.095Z,-0.21
2023-02-14T22:18:33.696Z,-0.29
2023-02-14T22:21:01.826Z,-0.19
2023-02-14T22:23:35.554Z,-0.22
2023-02-14T22:26:11.026Z,-0.18
2023-02-14T22:28:37.377Z,-0.28
2023-02-14T22:31:04.350Z,-0.18
2023-02-14T22:33:31.138Z,-0.27
2023-02-14T22:36:00.571Z,-0.16
2023-02-14T22:38:27.779Z,-0.25
2023-02-14T22:40:54.588Z,-0.32
2023-02-14T22:43:21.982Z,-0.28
2023-02-14T22:45:49.139Z,-0.26
2023-02-14T22:48:17.686Z,-0.29
2023-02-14T22:50:44.242Z,-0.23
2023-02-14T22:53:10.663Z,-0.28
2023-02-14T22:55:37.071Z,-0.16
2023-02-14T22:58:03.468Z,-0.33
2023-02-14T23:00:29.816Z,-0.15
2023-02-14T23:02:56.384Z,-0.19
2023-02-14T23:05:23.816Z,-0.23
2023-02-14T23:07:50.196Z,-0.24
2023-02-14T23:10:16.596Z,-0.09
2023-02-14T23:13:01.630Z,-0.17
2023-02-14T23:15:46.455Z,-0.22
2023-02-14T23:18:31.682Z,-0.19
2023-02-14T23:21:16.550Z,-0.16
2023-02-14T23:23:42.916Z,-0.18
2023-02-14T23:26:09.279Z,-0.18
2023-02-14T23:28:35.702Z,-0.11
2023-02-14T23:31:02.457Z,-0.06
2023-02-14T23:33:28.844Z,0.04
2023-02-14T23:35:55.222Z,-0.08
2023-02-14T23:38:21.598Z,-0.18
2023-02-14T23:41:06.502Z,-0.20
2023-02-14T23:43:32.879Z,-0.22
2023-02-14T23:46:00.179Z,-0.19
2023-02-14T23:48:26.818Z,-0.10
2023-02-14T23:50:53.178Z,-0.16
2023-02-14T23:53:19.573Z,-0.19
2023-02-14T23:55:45.924Z,-0.07
2023-02-14T23:58:12.284Z,-0.15
